createdAt,value
2017-01-25T00:00:55.385Z,-73
2017-01-25T00:05:51.586Z,-73
2017-01-25T00:10:47.821Z,-72
2017-01-25T00:15:44.272Z,-72
2017-01-25T00:20:40.128Z,-74
2017-01-25T00:25:36.592Z,-74
2017-01-25T00:30:32.835Z,-72
2017-01-25T00:35:29.029Z,-73
2017-01-25T00:40:25.280Z,-73
2017-01-25T00:45:21.728Z,-73
2017-01-25T00:50:17.875Z,-72
2017-01-25T00:55:14.162Z,-74
2017-01-25T01:00:10.563Z,-73
2017-01-25T01:05:06.713Z,-73
2017-01-25T01:10:03.686Z,-73
2017-01-25T01:14:59.984Z,-74
2017-01-25T01:19:57.074Z,-73
2017-01-25T01:24:54.021Z,-74
2017-01-25T01:29:50.342Z,-73
2017-01-25T01:34:46.367Z,-73
2017-01-25T01:39:42.799Z,-73
2017-01-25T01:44:40.007Z,-73
2017-01-25T01:49:36.118Z,-74
2017-01-25T01:54:32.498Z,-73
2017-01-25T01:59:28.961Z,-73
2017-01-25T02:04:25.236Z,-75
2017-01-25T02:09:21.656Z,-72
2017-01-25T02:14:17.933Z,-73
2017-01-25T02:19:14.110Z,-72
2017-01-25T02:24:09.904Z,-73
2017-01-25T02:29:06.492Z,-72
2017-01-25T02:34:03.536Z,-73
2017-01-25T02:39:00.460Z,-73
2017-01-25T02:43:56.811Z,-73
2017-01-25T02:48:53.530Z,-73
2017-01-25T02:53:49.863Z,-74
2017-01-25T02:58:46.209Z,-73
2017-01-25T03:03:42.492Z,-73
2017-01-25T03:08:38.685Z,-73
2017-01-25T03:13:35.028Z,-73
2017-01-25T03:18:32.232Z,-72
2017-01-25T03:23:28.371Z,-72
2017-01-25T03:28:24.527Z,-73
2017-01-25T03:33:20.879Z,-71
2017-01-25T03:38:17.663Z,-72
2017-01-25T03:43:14.041Z,-74
2017-01-25T03:48:10.361Z,-73
2017-01-25T03:53:06.516Z,-72
2017-01-25T03:58:02.820Z,-71
2017-01-25T04:02:59.168Z,-73
2017-01-25T04:07:55.619Z,-72
2017-01-25T04:12:51.949Z,-72
2017-01-25T04:17:48.537Z,-73
2017-01-25T04:22:44.663Z,-71
2017-01-25T04:27:41.029Z,-72
2017-01-25T04:32:37.495Z,-73
2017-01-25T04:37:33.851Z,-71
2017-01-25T04:42:30.205Z,-70
2017-01-25T04:47:26.308Z,-73
2017-01-25T04:52:22.566Z,-73
2017-01-25T04:57:19.967Z,-71
2017-01-25T05:02:15.841Z,-72
2017-01-25T05:07:12.138Z,-72
2017-01-25T05:12:08.870Z,-73
2017-01-25T05:17:05.962Z,-72
2017-01-25T05:22:02.131Z,-72
2017-01-25T05:26:58.582Z,-73
2017-01-25T05:31:55.108Z,-70
2017-01-25T05:36:51.439Z,-70
2017-01-25T05:41:47.832Z,-69
2017-01-25T05:46:44.338Z,-73
2017-01-25T05:51:40.488Z,-70
2017-01-25T05:56:36.648Z,-71
2017-01-25T06:01:32.978Z,-70
2017-01-25T06:06:29.198Z,-70
2017-01-25T06:11:25.606Z,-70
2017-01-25T06:16:21.671Z,-70
2017-01-25T06:21:18.025Z,-72
2017-01-25T06:26:14.268Z,-70
2017-01-25T06:31:11.449Z,-69
2017-01-25T06:36:07.774Z,-70
2017-01-25T06:41:03.996Z,-72
2017-01-25T06:46:00.100Z,-69
2017-01-25T06:50:56.344Z,-69
2017-01-25T06:55:52.691Z,-69
2017-01-25T07:00:48.805Z,-69
2017-01-25T07:05:45.029Z,-70
2017-01-25T07:10:41.342Z,-70
2017-01-25T07:15:37.568Z,-71
2017-01-25T07:20:34.587Z,-70
2017-01-25T07:25:30.753Z,-67
2017-01-25T07:30:27.151Z,-69
2017-01-25T07:35:23.856Z,-68
2017-01-25T07:40:19.829Z,-69
2017-01-25T07:45:16.364Z,-69
2017-01-25T07:50:13.428Z,-68
2017-01-25T07:55:09.898Z,-70
2017-01-25T08:00:06.246Z,-70
2017-01-25T08:05:02.445Z,-70
2017-01-25T08:09:58.712Z,-68
2017-01-25T08:14:54.937Z,-68
2017-01-25T08:19:51.196Z,-70
2017-01-25T08:24:47.589Z,-69
2017-01-25T08:29:43.841Z,-69
2017-01-25T08:34:41.622Z,-68
2017-01-25T08:39:37.801Z,-68
2017-01-25T08:44:33.546Z,-68
2017-01-25T08:49:30.774Z,-69
2017-01-25T08:54:26.858Z,-67
2017-01-25T08:59:23.252Z,-70
2017-01-25T09:04:19.410Z,-67
2017-01-25T09:09:15.547Z,-69
2017-01-25T09:14:12.103Z,-68
2017-01-25T09:19:09.102Z,-68
2017-01-25T09:24:06.097Z,-68
2017-01-25T09:29:02.645Z,-67
2017-01-25T09:33:59.203Z,-67
2017-01-25T09:38:56.403Z,-67
2017-01-25T09:43:53.905Z,-67
2017-01-25T09:48:50.067Z,-67
2017-01-25T09:53:46.313Z,-66
2017-01-25T09:58:42.899Z,-68
2017-01-25T10:03:39.309Z,-69
2017-01-25T10:08:35.948Z,-69
2017-01-25T10:13:32.428Z,-68
2017-01-25T10:18:30.011Z,-69
2017-01-25T10:23:26.299Z,-68
2017-01-25T10:28:23.561Z,-68
2017-01-25T10:33:19.927Z,-68
2017-01-25T10:38:16.225Z,-69
2017-01-25T10:43:12.749Z,-68
2017-01-25T10:48:09.184Z,-69
2017-01-25T10:53:06.210Z,-69
2017-01-25T10:58:02.724Z,-69
2017-01-25T11:02:59.196Z,-68
2017-01-25T11:07:55.684Z,-69
2017-01-25T11:12:52.897Z,-68
2017-01-25T11:17:49.257Z,-68
2017-01-25T11:22:45.497Z,-68
2017-01-25T11:27:41.944Z,-67
2017-01-25T11:32:38.177Z,-69
2017-01-25T11:37:34.437Z,-68
2017-01-25T11:42:30.693Z,-69
2017-01-25T11:47:27.485Z,-67
2017-01-25T11:52:23.966Z,-68
2017-01-25T11:57:20.571Z,-68
2017-01-25T12:02:16.967Z,-68
2017-01-25T12:07:13.283Z,-66
2017-01-25T12:12:09.605Z,-69
2017-01-25T12:17:05.664Z,-68
2017-01-25T12:22:02.118Z,-69
2017-01-25T12:26:58.670Z,-68
2017-01-25T12:31:55.194Z,-69
2017-01-25T12:36:51.698Z,-69
2017-01-25T12:41:48.351Z,-69
2017-01-25T12:46:45.044Z,-69
2017-01-25T12:51:41.359Z,-73
2017-01-25T12:56:37.628Z,-67
2017-01-25T13:01:33.950Z,-68
2017-01-25T13:06:30.437Z,-73
2017-01-25T13:11:26.726Z,-69
2017-01-25T13:16:23.055Z,-67
2017-01-25T13:21:19.348Z,-69
2017-01-25T13:26:16.506Z,-68
2017-01-25T13:31:12.656Z,-67
2017-01-25T13:36:08.803Z,-69
2017-01-25T13:41:05.833Z,-68
2017-01-25T13:46:02.859Z,-69
2017-01-25T13:50:59.191Z,-69
2017-01-25T13:55:55.781Z,-67
2017-01-25T14:00:51.986Z,-67
2017-01-25T14:05:48.522Z,-69
2017-01-25T14:10:44.943Z,-69
2017-01-25T14:15:41.210Z,-70
2017-01-25T14:20:37.543Z,-69
2017-01-25T14:25:33.923Z,-69
2017-01-25T14:30:30.262Z,-68
2017-01-25T14:35:26.733Z,-71
2017-01-25T14:40:23.093Z,-68
2017-01-25T14:45:19.886Z,-69
2017-01-25T14:50:17.208Z,-68
2017-01-25T14:55:13.113Z,-69
2017-01-25T15:00:09.633Z,-70
2017-01-25T15:05:05.972Z,-67
2017-01-25T15:10:02.303Z,-69
2017-01-25T15:14:58.532Z,-68
2017-01-25T15:19:54.914Z,-68
2017-01-25T15:24:51.170Z,-68
2017-01-25T15:29:47.587Z,-69
2017-01-25T15:34:44.526Z,-69
2017-01-25T15:39:40.536Z,-70
2017-01-25T15:44:37.452Z,-68
2017-01-25T15:49:33.405Z,-69
2017-01-25T15:54:29.555Z,-68
2017-01-25T15:59:25.781Z,-68
2017-01-25T16:04:23.244Z,-68
2017-01-25T16:09:19.964Z,-71
2017-01-25T16:14:16.315Z,-68
2017-01-25T16:19:12.441Z,-67
2017-01-25T16:24:08.562Z,-70
2017-01-25T16:29:04.714Z,-68
2017-01-25T16:34:01.022Z,-70
2017-01-25T16:38:57.275Z,-72
2017-01-25T16:43:53.463Z,-72
2017-01-25T16:48:50.098Z,-72
2017-01-25T16:53:46.516Z,-71
2017-01-25T16:58:42.676Z,-71
2017-01-25T17:03:39.122Z,-71
2017-01-25T17:08:36.289Z,-75
2017-01-25T17:13:32.733Z,-75
2017-01-25T17:18:29.003Z,-76
2017-01-25T17:23:25.812Z,-72
2017-01-25T17:28:22.212Z,-77
2017-01-25T17:33:18.213Z,-71
2017-01-25T17:38:14.449Z,-77
2017-01-25T17:43:10.672Z,-74
2017-01-25T17:48:06.799Z,-73
2017-01-25T17:53:03.365Z,-73
2017-01-25T17:57:59.636Z,-70
2017-01-25T18:02:55.603Z,-71
2017-01-25T18:07:51.752Z,-73
2017-01-25T18:12:47.844Z,-74
2017-01-25T18:17:44.321Z,-74
2017-01-25T18:22:40.647Z,-71
2017-01-25T18:27:37.059Z,-73
2017-01-25T18:32:33.559Z,-72
2017-01-25T18:37:29.775Z,-70
2017-01-25T18:42:27.398Z,-72
2017-01-25T18:47:23.439Z,-74
2017-01-25T18:52:19.614Z,-72
2017-01-25T18:57:16.602Z,-74
2017-01-25T19:02:12.754Z,-73
2017-01-25T19:07:09.716Z,-72
2017-01-25T19:12:06.736Z,-73
2017-01-25T19:17:02.797Z,-71
2017-01-25T19:21:59.199Z,-73
2017-01-25T19:26:55.606Z,-71
2017-01-25T19:31:52.023Z,-71
2017-01-25T19:36:48.544Z,-73
2017-01-25T19:41:44.534Z,-73
2017-01-25T19:46:41.191Z,-74
2017-01-25T19:51:37.471Z,-73
2017-01-25T20:01:35.460Z,-74
2017-01-25T20:06:31.726Z,-76
2017-01-25T20:11:32.008Z,-76
2017-01-25T20:16:27.405Z,-75
2017-01-25T20:21:23.669Z,-74
2017-01-25T20:26:20.158Z,-73
2017-01-25T20:31:16.930Z,-73
2017-01-25T20:36:13.292Z,-76
2017-01-25T20:41:09.443Z,-76
2017-01-25T20:46:06.484Z,-73
2017-01-25T20:51:02.867Z,-75
2017-01-25T20:55:59.178Z,-70
2017-01-25T21:00:56.188Z,-69
2017-01-25T21:05:52.404Z,-74
2017-01-25T21:10:48.837Z,-74
2017-01-25T21:15:45.486Z,-78
2017-01-25T21:20:41.683Z,-73
2017-01-25T21:25:37.828Z,-76
2017-01-25T21:30:34.867Z,-75
2017-01-25T21:35:31.142Z,-74
2017-01-25T21:40:27.605Z,-76
2017-01-25T21:45:23.597Z,-75
2017-01-25T21:50:20.976Z,-73
2017-01-25T21:55:16.877Z,-74
2017-01-25T22:00:13.257Z,-77
2017-01-25T22:05:10.442Z,-72
2017-01-25T22:10:07.497Z,-75
2017-01-25T22:15:03.772Z,-75
2017-01-25T22:20:00.853Z,-74
2017-01-25T22:24:57.148Z,-73
2017-01-25T22:29:54.206Z,-75
2017-01-25T22:34:51.383Z,-72
2017-01-25T22:39:47.986Z,-75
2017-01-25T22:44:45.194Z,-75
2017-01-25T22:49:41.347Z,-75
2017-01-25T22:54:37.896Z,-74
2017-01-25T22:59:34.226Z,-74
2017-01-25T23:04:31.460Z,-73
2017-01-25T23:09:27.877Z,-76
2017-01-25T23:14:24.378Z,-75
2017-01-25T23:19:20.912Z,-72
2017-01-25T23:24:17.399Z,-75
2017-01-25T23:29:13.651Z,-73
2017-01-25T23:34:11.952Z,-74
2017-01-25T23:39:08.139Z,-77
2017-01-25T23:44:04.211Z,-76
2017-01-25T23:49:01.345Z,-75
2017-01-25T23:53:57.843Z,-73
2017-01-25T23:58:53.939Z,-75
